SCL weather

Comodoro Arturo Merino Benítez International Airport
Santiago, Santiago Metropolitan Region, Chile

Public forecast

Using degrees Celsius for public forecast. Weather courtesy of forecast.io.

Current aviation weather report (METAR) for Comodoro Arturo Merino Benítez International Airport

Retrieved 2019/11/20 00:00 UTC (29 minutes ago):

SCEL 200000Z 15010KT CAVOK 24/04 Q1013 NOSIG

Aviation forecast (TAF) for Comodoro Arturo Merino Benítez International Airport

Retrieved 2019-11-20 00:00 UTC (29 minutes ago):

TAF SCEL 192236Z 2000/2024 20010KT CAVOK TX33/2019Z TN13/2011Z BECMG 2001/2003 14008KT BECMG 2003/2005 02004KT BECMG 2013/2015 18005KT BECMG 2016/2018 20012KT TEMPO 2018/2100 21018G28KT